createdAt,value
2022-12-01T00:01:00.970Z,71.95313
2022-12-01T00:03:01.234Z,71.92871
2022-12-01T00:05:00.914Z,71.7793
2022-12-01T00:08:36.188Z,71.30371
2022-12-01T00:10:36.186Z,70.86523
2022-12-01T00:12:36.226Z,71.3291
2022-12-01T00:14:36.201Z,70.95117
2022-12-01T00:16:36.449Z,70.80664
2022-12-01T00:18:36.184Z,70.89648
2022-12-01T00:20:36.245Z,71.10352
2022-12-01T00:24:05.547Z,71.22656
2022-12-01T00:26:05.545Z,73.71973
2022-12-01T00:28:05.540Z,73.05859
2022-12-01T00:30:05.492Z,72.94043
2022-12-01T00:32:05.860Z,73.02441
2022-12-01T00:34:11.574Z,73.05762
2022-12-01T00:36:05.545Z,72.36523
2022-12-01T00:39:16.946Z,72.41309
2022-12-01T00:41:16.995Z,71.77539
2022-12-01T00:43:16.937Z,71.64551
2022-12-01T00:45:16.956Z,71.65723
2022-12-01T00:47:17.034Z,71.78711
2022-12-01T00:49:16.950Z,71.87793
2022-12-01T00:51:16.959Z,72.01074
2022-12-01T00:54:17.578Z,71.5166
2022-12-01T00:56:17.511Z,71.6582
2022-12-01T00:58:17.554Z,71.7373
2022-12-01T01:00:17.549Z,72.09961
2022-12-01T01:02:17.688Z,72.51758
2022-12-01T01:04:17.602Z,72.91699
2022-12-01T01:06:17.510Z,72.74414
2022-12-01T01:08:53.774Z,72.50195
2022-12-01T01:10:53.734Z,71.39355
2022-12-01T01:12:53.663Z,72.94434
2022-12-01T01:14:53.748Z,72.58887
2022-12-01T01:16:53.921Z,72.33691
2022-12-01T01:18:53.671Z,72.68945
2022-12-01T01:20:53.732Z,72.24805
2022-12-01T01:24:35.591Z,73.17773
2022-12-01T01:26:35.548Z,72.83789
2022-12-01T01:28:35.553Z,73.0957
2022-12-01T01:30:35.603Z,72.28125
2022-12-01T01:32:35.526Z,73.14844
2022-12-01T01:34:35.548Z,73.69043
2022-12-01T01:36:35.597Z,73.19629
2022-12-01T01:39:17.187Z,72.80566
2022-12-01T01:41:17.154Z,72.69922
2022-12-01T01:43:17.165Z,72.32324
2022-12-01T01:45:17.195Z,72.32227
2022-12-01T01:47:17.173Z,72.37793
2022-12-01T01:49:17.209Z,72.6123
2022-12-01T01:51:17.149Z,72.73242
2022-12-01T01:54:29.047Z,72.86426
2022-12-01T01:56:28.972Z,72.29492
2022-12-01T01:58:28.978Z,72.71289
2022-12-01T02:00:28.951Z,72.70605
2022-12-01T02:02:29.141Z,73.81445
2022-12-01T02:04:28.975Z,73.47168
2022-12-01T02:06:28.943Z,72.63184
2022-12-01T02:09:59.083Z,72.35938
2022-12-01T02:11:59.121Z,72.74512
2022-12-01T02:13:59.241Z,74.79785
2022-12-01T02:15:59.181Z,73.10254
2022-12-01T02:17:59.158Z,72.82715
2022-12-01T02:19:59.010Z,72.63184
2022-12-01T02:21:59.183Z,73.09863
2022-12-01T02:25:22.402Z,72.99023
2022-12-01T02:27:22.368Z,72.59375
2022-12-01T02:29:22.382Z,72.11914
2022-12-01T02:31:22.500Z,71.53906
2022-12-01T02:33:22.361Z,71.59863
2022-12-01T02:35:22.403Z,71.50195
2022-12-01T02:37:22.426Z,71.38477
2022-12-01T02:39:49.367Z,71.70898
2022-12-01T02:41:48.774Z,72.08984
2022-12-01T02:43:48.765Z,71.85254
2022-12-01T02:45:48.868Z,71.03516
2022-12-01T02:47:48.803Z,71.27734
2022-12-01T02:49:49.633Z,71.03516
2022-12-01T02:51:48.849Z,71.52246
2022-12-01T02:53:48.812Z,71.39453
2022-12-01T02:55:29.661Z,71.0918
2022-12-01T02:57:29.667Z,70.9082
2022-12-01T02:59:29.597Z,70.86328
2022-12-01T03:01:29.779Z,70.62109
2022-12-01T03:03:29.592Z,70.49023
2022-12-01T03:05:29.631Z,70.56738
2022-12-01T03:07:29.743Z,70.4248
2022-12-01T03:10:34.688Z,71.18652
2022-12-01T03:12:34.774Z,71.37207
2022-12-01T03:14:34.718Z,72.38867
2022-12-01T03:16:34.859Z,73.14648
2022-12-01T03:18:34.717Z,72.54297
2022-12-01T03:20:34.671Z,72.17969
2022-12-01T03:22:34.716Z,71.18164
2022-12-01T03:25:15.817Z,72.17676
2022-12-01T03:27:15.870Z,71.6875
2022-12-01T03:29:15.849Z,72.09961
2022-12-01T03:31:15.877Z,71.52832
2022-12-01T03:33:15.846Z,71.25781
2022-12-01T03:35:15.818Z,72.00684
2022-12-01T03:37:15.846Z,71.42578
2022-12-01T03:39:15.801Z,70.9209
2022-12-01T03:41:22.144Z,71.58301
2022-12-01T03:43:22.095Z,71.54688
2022-12-01T03:45:22.144Z,70.60254
2022-12-01T03:47:22.147Z,70.5498
2022-12-01T03:49:22.118Z,70.29102
2022-12-01T03:51:22.138Z,69.94336
2022-12-01T03:53:22.119Z,69.99707
2022-12-01T03:56:16.577Z,70.40527
2022-12-01T03:58:16.604Z,70.1582
2022-12-01T04:00:16.616Z,70.72363
2022-12-01T04:02:16.697Z,69.64941
2022-12-01T04:04:16.613Z,71.66992
2022-12-01T04:06:16.639Z,71.6543
2022-12-01T04:08:16.614Z,71.45898
2022-12-01T04:10:47.732Z,71.82129
2022-12-01T04:12:47.651Z,71.27539
2022-12-01T04:14:47.753Z,70.75781
2022-12-01T04:16:47.691Z,71.35645
2022-12-01T04:18:47.707Z,71.4834
2022-12-01T04:20:47.744Z,71.35742
2022-12-01T04:22:47.645Z,70.88184
2022-12-01T04:24:47.619Z,71.86719
2022-12-01T04:26:32.549Z,71.43945
2022-12-01T04:28:32.470Z,71.73828
2022-12-01T04:30:32.414Z,72.08789
2022-12-01T04:32:32.417Z,72.00781
2022-12-01T04:34:32.453Z,71.91699
2022-12-01T04:36:32.436Z,71.99707
2022-12-01T04:38:32.506Z,71.44141
2022-12-01T04:41:45.446Z,71.25586
2022-12-01T04:43:45.430Z,70.92773
2022-12-01T04:45:45.404Z,71.87891
2022-12-01T04:47:45.443Z,72.39746
2022-12-01T04:49:45.474Z,72.34766
2022-12-01T04:51:45.432Z,71.73926
2022-12-01T04:53:45.541Z,71.65039
2022-12-01T04:56:19.725Z,72.4209
2022-12-01T04:58:19.648Z,73.00781
2022-12-01T05:00:19.607Z,73.51758
2022-12-01T05:02:19.804Z,73.52637
2022-12-01T05:04:19.605Z,73.2959
2022-12-01T05:06:19.665Z,73.08301
2022-12-01T05:08:19.676Z,72.52539
2022-12-01T05:10:19.639Z,72.24414
2022-12-01T05:12:12.985Z,72.90137
2022-12-01T05:14:12.923Z,72.27539
2022-12-01T05:16:13.044Z,71.91797
2022-12-01T05:18:13.030Z,72.10938
2022-12-01T05:20:12.911Z,72.13477
2022-12-01T05:22:12.991Z,72.06543
2022-12-01T05:24:12.973Z,72.47656
2022-12-01T05:27:29.836Z,72.76855
2022-12-01T05:29:29.847Z,73.00195
2022-12-01T05:31:29.933Z,72.76172
2022-12-01T05:33:29.842Z,73.39746
2022-12-01T05:35:29.807Z,73.77246
2022-12-01T05:37:29.930Z,73.74414
2022-12-01T05:39:29.822Z,73.61328
2022-12-01T05:42:41.339Z,73.49023
2022-12-01T05:44:41.332Z,75.73438
2022-12-01T05:46:41.288Z,75.0459
2022-12-01T05:48:41.339Z,74.71875
2022-12-01T05:50:41.278Z,74.55859
2022-12-01T05:52:41.269Z,74.28711
2022-12-01T05:54:41.228Z,75.89258
2022-12-01T05:56:58.185Z,76.3916
2022-12-01T05:58:56.872Z,75.71875
2022-12-01T06:00:56.896Z,75.04199
2022-12-01T06:02:56.854Z,74.73145
2022-12-01T06:04:56.861Z,74.80957
2022-12-01T06:06:56.860Z,74.29004
2022-12-01T06:08:56.913Z,74.55469
2022-12-01T06:10:56.872Z,74.7666
2022-12-01T06:12:18.366Z,74.6582
2022-12-01T06:14:18.321Z,74.14551
2022-12-01T06:16:18.545Z,74.27637
2022-12-01T06:18:18.377Z,74.24121
2022-12-01T06:20:18.414Z,75.60742
2022-12-01T06:22:18.356Z,75.34082
2022-12-01T06:24:18.365Z,75.37109
2022-12-01T06:27:14.675Z,74.11328
2022-12-01T06:29:14.629Z,75.02441
2022-12-01T06:31:14.655Z,74.87305
2022-12-01T06:33:14.648Z,74.66016
2022-12-01T06:35:14.664Z,74.62891
2022-12-01T06:37:14.712Z,74.66211
2022-12-01T06:39:14.623Z,74.62891
2022-12-01T06:41:14.879Z,74.5791
2022-12-01T06:42:43.187Z,74.36816
2022-12-01T06:44:43.278Z,74.58203
2022-12-01T06:46:43.247Z,74.5752
2022-12-01T06:48:43.068Z,73.97168
2022-12-01T06:50:43.142Z,74
2022-12-01T06:52:43.090Z,74.03711
2022-12-01T06:54:43.501Z,74.02539
2022-12-01T06:57:51.776Z,74.0127
2022-12-01T06:59:52.246Z,74.22949
2022-12-01T07:01:51.407Z,74.07813
2022-12-01T07:03:51.321Z,73.95215
2022-12-01T07:05:51.266Z,74.25488
2022-12-01T07:07:59.753Z,73.94824
2022-12-01T07:09:52.025Z,73.71191
2022-12-01T07:13:02.474Z,74.9873
2022-12-01T07:15:02.393Z,74.35352
2022-12-01T07:17:02.546Z,73.97656
2022-12-01T07:19:02.368Z,75.1875
2022-12-01T07:21:02.342Z,75.13281
2022-12-01T07:23:02.380Z,74.59473
2022-12-01T07:25:02.380Z,73.64648
2022-12-01T07:28:34.302Z,74.22559
2022-12-01T07:30:34.881Z,74.27539
2022-12-01T07:32:34.222Z,73.8623
2022-12-01T07:34:34.257Z,73.99121
2022-12-01T07:36:35.210Z,74.03027
2022-12-01T07:38:34.376Z,73.99902
2022-12-01T07:40:34.392Z,74.39063
2022-12-01T07:43:20.455Z,73.85742
2022-12-01T07:45:20.507Z,73.68652
2022-12-01T07:47:20.469Z,73.87109
2022-12-01T07:49:20.447Z,73.62988
2022-12-01T07:51:20.460Z,73.74414
2022-12-01T07:53:20.453Z,73.91699
2022-12-01T07:55:20.421Z,74.34473
2022-12-01T07:58:55.428Z,73.46191
2022-12-01T08:00:55.523Z,73.29004
2022-12-01T08:02:55.629Z,73.69727
2022-12-01T08:04:55.462Z,73.73926
2022-12-01T08:06:55.432Z,73.45898
2022-12-01T08:08:55.397Z,72.69824
2022-12-01T08:10:55.462Z,72.94141
2022-12-01T08:13:43.350Z,72.97949
2022-12-01T08:15:43.403Z,72.86426
2022-12-01T08:17:43.344Z,72.70898
2022-12-01T08:19:43.322Z,72.75781
2022-12-01T08:21:43.317Z,72.70117
2022-12-01T08:23:43.354Z,73.1875
2022-12-01T08:25:43.299Z,72.84277
2022-12-01T08:29:06.088Z,72.52148
2022-12-01T08:31:06.165Z,73.17188
2022-12-01T08:33:06.096Z,72.44336
2022-12-01T08:35:06.125Z,72.36133
2022-12-01T08:37:06.242Z,72.2334
2022-12-01T08:39:06.375Z,72.13867
2022-12-01T08:41:06.255Z,72.80371
2022-12-01T08:43:58.979Z,72.61621
2022-12-01T08:45:40.594Z,73.5752
2022-12-01T08:47:43.070Z,73.08008
2022-12-01T08:49:40.968Z,73.81543
2022-12-01T08:51:40.703Z,73.77441
2022-12-01T08:53:45.929Z,73.19531
2022-12-01T08:55:40.646Z,72.89844
2022-12-01T08:57:40.610Z,72.24316
2022-12-01T08:59:36.997Z,71.82813
2022-12-01T09:01:37.084Z,72.21289
2022-12-01T09:03:37.089Z,72.52246
2022-12-01T09:05:37.133Z,72.23242
2022-12-01T09:07:37.285Z,72.74805
2022-12-01T09:09:37.052Z,72.46191
2022-12-01T09:11:37.008Z,74.05859
2022-12-01T09:14:08.610Z,73.80273
2022-12-01T09:16:07.712Z,73.16309
2022-12-01T09:18:07.554Z,72.07617
2022-12-01T09:20:07.523Z,75.89258
2022-12-01T09:22:07.601Z,75.40332
2022-12-01T09:24:07.519Z,74.43164
2022-12-01T09:26:13.905Z,73.28711
2022-12-01T09:28:07.542Z,73.55566
2022-12-01T09:29:44.200Z,73.21289
2022-12-01T09:31:44.281Z,72.71484
2022-12-01T09:33:44.093Z,72.18555
2022-12-01T09:35:44.168Z,75.10059
2022-12-01T09:37:44.191Z,74.0918
2022-12-01T09:39:44.110Z,73.79492
2022-12-01T09:41:44.101Z,73.02441
2022-12-01T09:44:23.856Z,72.0459
2022-12-01T09:46:23.950Z,71.48438
2022-12-01T09:48:23.786Z,71.38281
2022-12-01T09:50:23.816Z,72.22949
2022-12-01T09:52:23.795Z,72.02148
2022-12-01T09:54:23.903Z,71.58398
2022-12-01T09:56:23.839Z,71.9541
2022-12-01T09:58:23.830Z,71.97852
2022-12-01T09:59:56.455Z,72.53613
2022-12-01T10:01:58.628Z,73.16699
2022-12-01T10:03:56.478Z,71.39844
2022-12-01T10:07:56.617Z,71.00488
2022-12-01T10:09:56.557Z,71.11719
2022-12-01T10:11:56.553Z,71.00781
2022-12-01T10:15:06.154Z,71.82617
2022-12-01T10:17:06.249Z,71.43066
2022-12-01T10:19:06.187Z,71.47852
2022-12-01T10:21:06.273Z,71.26465
2022-12-01T10:23:06.329Z,71.58301
2022-12-01T10:25:06.532Z,71.76172
2022-12-01T10:27:06.117Z,71.10254
2022-12-01T10:30:27.831Z,71.0293
2022-12-01T10:32:27.553Z,72.00781
2022-12-01T10:34:27.832Z,71.9375
2022-12-01T10:36:27.373Z,71.65137
2022-12-01T10:38:27.556Z,71.625
2022-12-01T10:40:27.609Z,70.87988
2022-12-01T10:42:27.479Z,71.625
2022-12-01T10:45:00.090Z,71.35742
2022-12-01T10:46:59.807Z,70.55469
2022-12-01T10:48:59.671Z,71.62109
2022-12-01T10:50:59.712Z,71.87305
2022-12-01T10:52:59.536Z,71.40137
2022-12-01T10:54:59.589Z,71.5625
2022-12-01T10:56:59.734Z,71.84082
2022-12-01T10:58:59.613Z,71.14844
2022-12-01T11:00:11.980Z,71.68945
2022-12-01T11:02:11.682Z,71.58008
2022-12-01T11:04:11.406Z,70.75977
2022-12-01T11:06:11.452Z,70.19238
2022-12-01T11:08:11.455Z,71.28613
2022-12-01T11:10:11.362Z,70.74512
2022-12-01T11:12:11.414Z,70.38477
2022-12-01T11:14:11.376Z,70.44629
2022-12-01T11:15:43.772Z,70.21289
2022-12-01T11:17:43.750Z,70.46484
2022-12-01T11:19:43.959Z,69.46387
2022-12-01T11:21:43.779Z,70.95215
2022-12-01T11:23:43.759Z,71.02051
2022-12-01T11:25:43.743Z,69.99316
2022-12-01T11:27:43.840Z,71.30078
2022-12-01T11:31:22.542Z,70.77246
2022-12-01T11:33:22.438Z,70.37305
2022-12-01T11:35:22.415Z,69.65625
2022-12-01T11:37:22.462Z,69.73633
2022-12-01T11:39:22.468Z,69.62207
2022-12-01T11:41:22.393Z,70.0293
2022-12-01T11:43:22.470Z,70.58203
2022-12-01T11:45:55.877Z,69.79004
2022-12-01T11:47:55.739Z,69.74023
2022-12-01T11:49:55.690Z,68.58984
2022-12-01T11:51:55.722Z,69.28711
2022-12-01T11:53:55.712Z,69.91504
2022-12-01T11:55:55.727Z,69.92871
2022-12-01T11:57:55.730Z,70.59863
2022-12-01T12:01:33.524Z,70.68359
2022-12-01T12:03:33.695Z,70.52441
2022-12-01T12:05:33.473Z,70.24121
2022-12-01T12:07:33.541Z,69.75391
2022-12-01T12:09:33.539Z,69.66699
2022-12-01T12:11:33.442Z,69.80176
2022-12-01T12:13:33.534Z,69.59863
2022-12-01T12:16:56.819Z,69.24023
2022-12-01T12:18:57.819Z,69.5791
2022-12-01T12:20:56.753Z,69.55957
2022-12-01T12:22:56.738Z,69.26855
2022-12-01T12:24:56.819Z,69.91113
2022-12-01T12:26:56.756Z,70.05664
2022-12-01T12:28:56.785Z,69.96191
2022-12-01T12:31:19.288Z,69.64258
2022-12-01T12:33:20.370Z,69.93652
2022-12-01T12:35:19.296Z,69.86816
2022-12-01T12:37:19.100Z,70.07031
2022-12-01T12:39:19.102Z,69.4541
2022-12-01T12:41:19.204Z,69.67285
2022-12-01T12:43:19.132Z,69.33203
2022-12-01T12:45:19.216Z,70.06445
2022-12-01T12:47:12.208Z,70.14746
2022-12-01T12:49:20.850Z,70.0957
2022-12-01T12:51:12.138Z,70.09961
2022-12-01T12:53:12.113Z,70.1123
2022-12-01T12:55:12.026Z,70.53027
2022-12-01T12:57:12.074Z,70.00684
2022-12-01T12:59:12.020Z,69.5459
2022-12-01T13:01:37.386Z,69.94336
2022-12-01T13:03:37.180Z,69.32422
2022-12-01T13:05:37.198Z,69.12988
2022-12-01T13:07:37.309Z,69.33594
2022-12-01T13:09:37.212Z,68.87891
2022-12-01T13:11:37.198Z,68.90625
2022-12-01T13:13:37.165Z,68.35449
2022-12-01T13:15:37.423Z,69.60059
2022-12-01T13:16:56.001Z,69.86133
2022-12-01T13:18:56.001Z,69.86523
2022-12-01T13:20:56.162Z,69.67773
2022-12-01T13:22:55.976Z,69.46387
2022-12-01T13:24:55.991Z,69.14063
2022-12-01T13:26:55.953Z,70.15332
2022-12-01T13:28:55.980Z,71.1875
2022-12-01T13:32:31.107Z,70.25879
2022-12-01T13:34:31.052Z,70.24219
2022-12-01T13:36:48.152Z,70.44238
2022-12-01T13:38:31.145Z,70.50781
2022-12-01T13:40:31.023Z,70.57227
2022-12-01T13:42:31.430Z,70.28711
2022-12-01T13:44:31.369Z,69.93457
2022-12-01T13:47:48.340Z,70.34668
2022-12-01T13:49:49.057Z,70.10254
2022-12-01T13:51:48.317Z,69.8916
2022-12-01T13:53:48.355Z,70.51563
2022-12-01T13:55:48.275Z,70.48047
2022-12-01T13:57:48.660Z,70.22559
2022-12-01T13:59:49.042Z,69.99609
2022-12-01T14:03:02.742Z,70.29785
2022-12-01T14:05:02.599Z,70.84961
2022-12-01T14:07:03.664Z,70.6123
2022-12-01T14:09:02.606Z,70.44043
2022-12-01T14:11:02.578Z,70.13965
2022-12-01T14:13:02.609Z,70.52246
2022-12-01T14:15:02.790Z,70.51367
2022-12-01T14:17:35.346Z,70.55273
2022-12-01T14:19:35.228Z,70.69043
2022-12-01T14:21:35.568Z,70.9873
2022-12-01T14:23:35.280Z,70.89941
2022-12-01T14:25:35.213Z,70.74023
2022-12-01T14:27:35.178Z,70.70508
2022-12-01T14:29:35.224Z,70.83496
2022-12-01T14:33:13.914Z,70.53516
2022-12-01T14:35:13.723Z,70.51465
2022-12-01T14:37:13.884Z,70.38867
2022-12-01T14:39:13.789Z,70.5332
2022-12-01T14:41:22.381Z,70.77637
2022-12-01T14:43:13.520Z,71.29688
2022-12-01T14:45:13.899Z,70.87891
2022-12-01T14:47:58.810Z,70.56445
2022-12-01T14:49:58.383Z,70.6123
2022-12-01T14:51:58.407Z,70.74219
2022-12-01T14:53:58.474Z,70.91602
2022-12-01T14:55:58.430Z,70.84863
2022-12-01T14:57:58.427Z,70.98242
2022-12-01T14:59:58.459Z,70.62207
2022-12-01T15:03:20.654Z,70.18457
2022-12-01T15:05:20.651Z,70.65234
2022-12-01T15:07:20.752Z,71.20801
2022-12-01T15:09:34.775Z,70.99805
2022-12-01T15:11:20.703Z,70.8916
2022-12-01T15:13:20.607Z,70.88477
2022-12-01T15:15:24.531Z,71.03711
2022-12-01T15:18:19.836Z,71.42676
2022-12-01T15:20:19.874Z,71.31836
2022-12-01T15:22:19.873Z,71.08984
2022-12-01T15:24:19.799Z,71.52148
2022-12-01T15:26:19.885Z,71.18848
2022-12-01T15:28:20.954Z,71.1748
2022-12-01T15:30:19.870Z,71.31738
2022-12-01T15:33:38.159Z,72.14355
2022-12-01T15:35:41.198Z,72.19824
2022-12-01T15:37:38.307Z,72.01074
2022-12-01T15:39:38.271Z,72.22559
2022-12-01T15:41:38.134Z,71.80273
2022-12-01T15:43:38.215Z,72.12695
2022-12-01T15:45:38.284Z,72.69629
2022-12-01T15:48:25.419Z,72.17871
2022-12-01T15:50:25.476Z,72.15527
2022-12-01T15:52:25.463Z,71.88184
2022-12-01T15:54:25.416Z,71.94336
2022-12-01T15:56:25.397Z,72.24805
2022-12-01T15:58:25.397Z,72.4043
2022-12-01T16:00:25.378Z,72.42188
2022-12-01T16:04:11.323Z,71.9834
2022-12-01T16:06:11.305Z,72.12891
2022-12-01T16:08:14.293Z,72.36426
2022-12-01T16:10:11.370Z,72.37012
2022-12-01T16:12:11.329Z,72.11328
2022-12-01T16:14:11.217Z,72.25586
2022-12-01T16:16:11.372Z,72.65137
2022-12-01T16:19:11.892Z,72.50391
2022-12-01T16:21:11.979Z,72.39844
2022-12-01T16:23:11.877Z,72.21875
2022-12-01T16:25:11.959Z,72.33789
2022-12-01T16:27:11.876Z,72.28809
2022-12-01T16:29:12.003Z,71.91504
2022-12-01T16:31:15.581Z,72.18164
2022-12-01T16:34:45.666Z,72.14355
2022-12-01T16:36:27.198Z,71.85645
2022-12-01T16:38:24.581Z,72.40625
2022-12-01T16:40:24.624Z,72.17969
2022-12-01T16:42:24.667Z,72.13379
2022-12-01T16:44:29.493Z,72.08594
2022-12-01T16:46:24.792Z,72.12988
2022-12-01T16:49:34.593Z,72.07422
2022-12-01T16:51:56.996Z,72.2627
2022-12-01T16:53:34.619Z,72.69922
2022-12-01T16:55:34.629Z,73.04297
2022-12-01T16:57:35.629Z,73.25977
2022-12-01T16:59:34.625Z,73.26758
2022-12-01T17:01:34.797Z,73.18262
2022-12-01T17:04:53.681Z,73.04102
2022-12-01T17:06:53.404Z,72.74219
2022-12-01T17:08:53.365Z,72.96777
2022-12-01T17:10:53.363Z,72.96973
2022-12-01T17:12:53.366Z,72.95898
2022-12-01T17:14:53.354Z,72.91113
2022-12-01T17:16:53.361Z,73.01953
2022-12-01T17:19:28.404Z,73.13184
2022-12-01T17:21:28.419Z,73.43164
2022-12-01T17:23:28.397Z,73.21875
2022-12-01T17:25:28.445Z,72.91309
2022-12-01T17:27:28.369Z,73.06543
2022-12-01T17:29:28.525Z,73.23926
2022-12-01T17:31:28.699Z,73.35547
2022-12-01T17:35:12.054Z,73.70801
2022-12-01T17:37:20.829Z,73.81055
2022-12-01T17:39:12.124Z,74.19531
2022-12-01T17:41:12.049Z,74.14941
2022-12-01T17:43:12.004Z,74.27441
2022-12-01T17:45:12.008Z,74.49414
2022-12-01T17:47:11.994Z,74.60156
2022-12-01T17:49:39.661Z,74.49805
2022-12-01T17:51:39.706Z,74.38574
2022-12-01T17:53:39.707Z,74.76367
2022-12-01T17:55:39.674Z,74.36133
2022-12-01T17:57:39.640Z,74.4707
2022-12-01T17:59:39.681Z,74.24512
2022-12-01T18:01:39.911Z,74.42578
2022-12-01T18:03:39.684Z,74.1123
2022-12-01T18:05:28.148Z,73.89355
2022-12-01T18:07:28.153Z,73.76758
2022-12-01T18:09:28.297Z,73.85059
2022-12-01T18:11:28.235Z,73.39258
2022-12-01T18:13:28.087Z,73.79785
2022-12-01T18:15:34.906Z,73.96582
2022-12-01T18:17:28.216Z,74.06738
2022-12-01T18:20:47.650Z,74.09473
2022-12-01T18:22:47.701Z,73.9502
2022-12-01T18:24:48.247Z,74.25879
2022-12-01T18:26:47.677Z,74.32031
2022-12-01T18:28:47.528Z,74.19336
2022-12-01T18:30:47.601Z,73.81543
2022-12-01T18:32:47.584Z,73.79102
2022-12-01T18:35:18.468Z,74.03418
2022-12-01T18:37:18.432Z,74.02734
2022-12-01T18:39:18.536Z,74.13672
2022-12-01T18:41:18.551Z,74.08008
2022-12-01T18:43:18.391Z,74.07715
2022-12-01T18:45:21.693Z,74.13867
2022-12-01T18:47:18.460Z,74.30273
2022-12-01T18:50:11.374Z,74.45703
2022-12-01T18:52:11.321Z,74.93359
2022-12-01T18:54:11.760Z,74.93848
2022-12-01T18:56:12.545Z,74.78125
2022-12-01T18:58:11.356Z,74.59375
2022-12-01T19:00:11.549Z,74.23828
2022-12-01T19:02:11.482Z,74.55859
2022-12-01T19:04:11.677Z,75.07422
2022-12-01T19:05:56.258Z,74.89941
2022-12-01T19:07:56.218Z,74.68262
2022-12-01T19:09:55.979Z,74.28906
2022-12-01T19:11:56.068Z,74.24805
2022-12-01T19:13:56.041Z,74.19629
2022-12-01T19:15:56.117Z,73.97168
2022-12-01T19:17:55.968Z,73.90137
2022-12-01T19:20:36.042Z,73.46875
2022-12-01T19:22:36.063Z,73.6748
2022-12-01T19:24:35.997Z,73.49512
2022-12-01T19:26:36.021Z,73.65234
2022-12-01T19:28:36.066Z,73.26953
2022-12-01T19:30:36.072Z,72.8916
2022-12-01T19:32:36.049Z,73.09766
2022-12-01T19:34:36.017Z,72.82617
2022-12-01T19:36:01.995Z,72.96094
2022-12-01T19:38:01.682Z,74.75391
2022-12-01T19:40:01.507Z,76.2998
2022-12-01T19:42:03.590Z,75.55859
2022-12-01T19:44:01.545Z,75.35059
2022-12-01T19:46:01.736Z,74.77344
2022-12-01T19:48:03.566Z,74.79199
2022-12-01T19:51:20.754Z,74.21191
2022-12-01T19:53:20.656Z,74.77344
2022-12-01T19:55:20.681Z,74.50879
2022-12-01T19:57:20.702Z,74.65332
2022-12-01T19:59:20.666Z,74.41406
2022-12-01T20:01:20.942Z,73.7207
2022-12-01T20:03:20.667Z,73.68164
2022-12-01T20:06:32.934Z,74.09473
2022-12-01T20:08:36.301Z,74.10352
2022-12-01T20:10:32.045Z,73.7627
2022-12-01T20:12:32.248Z,73.43066
2022-12-01T20:14:31.912Z,73.60059
2022-12-01T20:16:32.702Z,74.42676
2022-12-01T20:18:31.975Z,74.36328
2022-12-01T20:22:02.210Z,73.93066
2022-12-01T20:24:02.224Z,73.41309
2022-12-01T20:26:02.109Z,73.79004
2022-12-01T20:28:02.213Z,73.82813
2022-12-01T20:30:02.699Z,74.06738
2022-12-01T20:32:03.475Z,74.13184
2022-12-01T20:34:02.096Z,73.89258
2022-12-01T20:37:04.706Z,73.81738
2022-12-01T20:39:04.541Z,73.32324
2022-12-01T20:41:04.546Z,73.3623
2022-12-01T20:43:04.609Z,73.24316
2022-12-01T20:45:04.567Z,73.51172
2022-12-01T20:47:04.640Z,73.93262
2022-12-01T20:49:04.569Z,73.81934
2022-12-01T20:52:15.582Z,73.33887
2022-12-01T20:54:28.148Z,73.52148
2022-12-01T20:56:15.593Z,73.87402
2022-12-01T20:58:15.593Z,73.42969
2022-12-01T21:00:15.500Z,73.52344
2022-12-01T21:02:15.763Z,73.81738
2022-12-01T21:04:15.616Z,73.46387
2022-12-01T21:06:45.509Z,73.35059
2022-12-01T21:08:45.435Z,73.44141
2022-12-01T21:10:45.400Z,73.63477
2022-12-01T21:12:45.501Z,73.78027
2022-12-01T21:14:45.576Z,73.38477
2022-12-01T21:16:45.700Z,73.57227
2022-12-01T21:18:45.446Z,73.04199
2022-12-01T21:22:15.503Z,73.81348
2022-12-01T21:24:15.399Z,73.3457
2022-12-01T21:26:15.409Z,73.51465
2022-12-01T21:28:15.438Z,73.72266
2022-12-01T21:30:15.448Z,73.42383
2022-12-01T21:32:15.462Z,73.43359
2022-12-01T21:34:15.437Z,73.27832
2022-12-01T21:37:50.359Z,72.96191
2022-12-01T21:39:50.299Z,73.30957
2022-12-01T21:41:50.308Z,72.61035
2022-12-01T21:43:50.384Z,72.79883
2022-12-01T21:45:50.501Z,73.00195
2022-12-01T21:47:50.406Z,72.63574
2022-12-01T21:49:50.360Z,72.98535
2022-12-01T21:52:56.060Z,72.60742
2022-12-01T21:54:56.027Z,72.78809
2022-12-01T21:56:55.944Z,73.01563
2022-12-01T21:58:55.898Z,72.63184
2022-12-01T22:00:55.982Z,73.03613
2022-12-01T22:02:55.862Z,73.01855
2022-12-01T22:04:55.889Z,72.92969
2022-12-01T22:08:12.741Z,73.56152
2022-12-01T22:10:12.742Z,73.74512
2022-12-01T22:12:12.709Z,73.85352
2022-12-01T22:14:12.879Z,73.61133
2022-12-01T22:16:13.058Z,73.19727
2022-12-01T22:18:12.765Z,73.81738
2022-12-01T22:20:12.668Z,74.20215
2022-12-01T22:22:53.537Z,73.87109
2022-12-01T22:24:54.192Z,73.57031
2022-12-01T22:26:53.480Z,74.00195
2022-12-01T22:28:53.450Z,73.05273
2022-12-01T22:30:53.520Z,72.8877
2022-12-01T22:32:53.458Z,72.69727
2022-12-01T22:34:53.780Z,73.27539
2022-12-01T22:38:18.978Z,72.47949
2022-12-01T22:40:18.926Z,72.28027
2022-12-01T22:42:18.874Z,72.36719
2022-12-01T22:44:18.883Z,72.61621
2022-12-01T22:46:19.093Z,72.50293
2022-12-01T22:48:18.898Z,72.15039
2022-12-01T22:50:18.904Z,72.56348
2022-12-01T22:53:03.819Z,72.37695
2022-12-01T22:55:03.859Z,72.05078
2022-12-01T22:57:03.855Z,72.64648
2022-12-01T22:59:03.799Z,72.14258
2022-12-01T23:01:03.882Z,72.09375
2022-12-01T23:03:03.928Z,72.12207
2022-12-01T23:05:03.829Z,72.44922
2022-12-01T23:08:17.227Z,72.14355
2022-12-01T23:10:17.257Z,71.97656
2022-12-01T23:12:17.261Z,71.89941
2022-12-01T23:14:17.473Z,71.85547
2022-12-01T23:16:17.547Z,71.74023
2022-12-01T23:18:17.236Z,71.7207
2022-12-01T23:20:17.253Z,71.51758
2022-12-01T23:23:29.728Z,71.41113
2022-12-01T23:25:29.690Z,71.64063
2022-12-01T23:27:29.687Z,71.54297
2022-12-01T23:29:29.618Z,71.79785
2022-12-01T23:31:29.819Z,71.88086
2022-12-01T23:33:29.668Z,71.39258
2022-12-01T23:35:29.625Z,71.62695
2022-12-01T23:38:33.823Z,71.5293
2022-12-01T23:40:33.843Z,71.83008
2022-12-01T23:42:33.822Z,71.86914
2022-12-01T23:44:33.772Z,71.99219
2022-12-01T23:46:34.312Z,71.92969
2022-12-01T23:48:33.828Z,72.08691
2022-12-01T23:50:33.839Z,71.66602
2022-12-01T23:53:36.453Z,71.22656
2022-12-01T23:55:36.452Z,71.41309
2022-12-01T23:57:36.443Z,71.72363
2022-12-01T23:59:36.499Z,71.44922
